Terminal Aerodrome Forecast
Issued by NWS Sterling, VA

Current Version | Previous Version | Text Only | Print | Product List | Glossary Off
Versions: 1 2 3 4 5 6 7 8 9 10 11 12 13 14 15 16 17 18 19 20 21 22 23 24 25 26 27 28 29 30 31 32 33

000
FTUS41 KLWX 050900 AAA
TAFIAD
TAF AMD
KIAD 050900Z 0509/0612 34010KT 5SM -RA BR FEW011 OVC035
     FM051100 35014G21KT 1SM -SNPL BR OVC015
     FM051500 35010G17KT 1/2SM SN OVC004
     FM052000 35008KT 3SM -SN OVC020
     FM060000 32007KT P6SM OVC025
     FM060400 33004KT P6SM SCT040=

USA.gov is the U.S. government's official web portal to all federal, state and local government web resources and services.